sensor_id;sensor_type;location;lat;lon;timestamp;P1;durP1;ratioP1;P2;durP2;ratioP2
30335;SDS011;17142;47.990;7.846;2022-11-15T00:00:02;2.93;;;2.70;;
30335;SDS011;17142;47.990;7.846;2022-11-15T00:02:28;2.70;;;2.33;;
30335;SDS011;17142;47.990;7.846;2022-11-15T00:04:56;4.90;;;2.50;;
30335;SDS011;17142;47.990;7.846;2022-11-15T00:07:22;3.20;;;2.00;;
30335;SDS011;17142;47.990;7.846;2022-11-15T00:09:48;2.53;;;2.33;;
30335;SDS011;17142;47.990;7.846;2022-11-15T00:12:15;3.10;;;2.47;;
30335;SDS011;17142;47.990;7.846;2022-11-15T00:14:41;6.23;;;3.20;;
30335;SDS011;17142;47.990;7.846;2022-11-15T00:17:07;4.27;;;3.10;;
30335;SDS011;17142;47.990;7.846;2022-11-15T00:19:32;2.80;;;2.20;;
30335;SDS011;17142;47.990;7.846;2022-11-15T00:21:58;4.70;;;2.80;;
30335;SDS011;17142;47.990;7.846;2022-11-15T00:24:23;4.47;;;2.73;;
30335;SDS011;17142;47.990;7.846;2022-11-15T00:26:54;3.43;;;2.27;;
30335;SDS011;17142;47.990;7.846;2022-11-15T00:29:19;4.00;;;2.77;;
30335;SDS011;17142;47.990;7.846;2022-11-15T00:31:45;2.50;;;1.90;;
30335;SDS011;17142;47.990;7.846;2022-11-15T00:34:10;3.07;;;2.50;;
30335;SDS011;17142;47.990;7.846;2022-11-15T00:36:36;2.40;;;2.07;;
30335;SDS011;17142;47.990;7.846;2022-11-15T00:39:03;5.23;;;2.10;;
30335;SDS011;17142;47.990;7.846;2022-11-15T00:41:30;2.93;;;2.20;;
30335;SDS011;17142;47.990;7.846;2022-11-15T00:43:56;5.07;;;2.53;;
30335;SDS011;17142;47.990;7.846;2022-11-15T00:46:22;3.93;;;2.77;;
30335;SDS011;17142;47.990;7.846;2022-11-15T00:48:47;3.20;;;2.00;;
30335;SDS011;17142;47.990;7.846;2022-11-15T00:51:13;5.33;;;2.47;;
30335;SDS011;17142;47.990;7.846;2022-11-15T00:53:41;4.63;;;3.27;;
30335;SDS011;17142;47.990;7.846;2022-11-15T00:56:06;3.20;;;2.90;;
30335;SDS011;17142;47.990;7.846;2022-11-15T00:58:32;6.70;;;3.37;;
30335;SDS011;17142;47.990;7.846;2022-11-15T01:01:11;2.60;;;2.07;;
30335;SDS011;17142;47.990;7.846;2022-11-15T01:03:38;3.27;;;2.10;;
30335;SDS011;17142;47.990;7.846;2022-11-15T01:06:07;4.43;;;2.40;;
30335;SDS011;17142;47.990;7.846;2022-11-15T01:08:33;2.97;;;2.10;;
30335;SDS011;17142;47.990;7.846;2022-11-15T01:11:00;3.13;;;2.80;;
30335;SDS011;17142;47.990;7.846;2022-11-15T01:13:30;5.30;;;2.70;;
30335;SDS011;17142;47.990;7.846;2022-11-15T01:15:57;4.03;;;2.27;;
30335;SDS011;17142;47.990;7.846;2022-11-15T01:18:22;3.20;;;2.40;;
30335;SDS011;17142;47.990;7.846;2022-11-15T01:20:48;2.83;;;2.33;;
30335;SDS011;17142;47.990;7.846;2022-11-15T01:23:16;2.70;;;2.23;;
30335;SDS011;17142;47.990;7.846;2022-11-15T01:25:41;5.20;;;1.60;;
30335;SDS011;17142;47.990;7.846;2022-11-15T01:28:07;2.43;;;1.87;;
30335;SDS011;17142;47.990;7.846;2022-11-15T01:30:35;3.57;;;1.80;;
30335;SDS011;17142;47.990;7.846;2022-11-15T01:33:01;4.17;;;1.73;;
30335;SDS011;17142;47.990;7.846;2022-11-15T01:35:27;2.77;;;1.87;;
30335;SDS011;17142;47.990;7.846;2022-11-15T01:37:52;2.13;;;1.40;;
30335;SDS011;17142;47.990;7.846;2022-11-15T01:40:18;2.10;;;1.30;;
30335;SDS011;17142;47.990;7.846;2022-11-15T01:42:43;2.20;;;1.33;;
30335;SDS011;17142;47.990;7.846;2022-11-15T01:45:13;2.77;;;1.90;;
30335;SDS011;17142;47.990;7.846;2022-11-15T01:47:40;1.93;;;1.73;;
30335;SDS011;17142;47.990;7.846;2022-11-15T01:50:15;2.70;;;2.37;;
30335;SDS011;17142;47.990;7.846;2022-11-15T01:52:44;8.23;;;4.07;;
30335;SDS011;17142;47.990;7.846;2022-11-15T01:55:11;3.23;;;2.13;;
30335;SDS011;17142;47.990;7.846;2022-11-15T01:57:38;3.97;;;2.07;;
30335;SDS011;17142;47.990;7.846;2022-11-15T02:00:06;2.27;;;1.83;;
30335;SDS011;17142;47.990;7.846;2022-11-15T02:02:32;1.60;;;1.37;;
30335;SDS011;17142;47.990;7.846;2022-11-15T02:05:03;1.90;;;1.70;;
30335;SDS011;17142;47.990;7.846;2022-11-15T02:07:29;3.43;;;2.27;;
30335;SDS011;17142;47.990;7.846;2022-11-15T02:10:01;1.80;;;1.70;;
30335;SDS011;17142;47.990;7.846;2022-11-15T02:12:34;1.70;;;1.60;;
30335;SDS011;17142;47.990;7.846;2022-11-15T02:15:00;1.67;;;1.57;;
30335;SDS011;17142;47.990;7.846;2022-11-15T02:27:03;3.27;;;1.73;;
30335;SDS011;17142;47.990;7.846;2022-11-15T02:32:24;2.60;;;1.50;;
30335;SDS011;17142;47.990;7.846;2022-11-15T02:43:25;0.83;;;0.60;;
30335;SDS011;17142;47.990;7.846;2022-11-15T02:46:34;1.53;;;0.93;;
30335;SDS011;17142;47.990;7.846;2022-11-15T02:49:37;1.00;;;0.87;;
30335;SDS011;17142;47.990;7.846;2022-11-15T02:52:25;1.03;;;0.83;;
30335;SDS011;17142;47.990;7.846;2022-11-15T02:54:54;0.63;;;0.60;;
30335;SDS011;17142;47.990;7.846;2022-11-15T03:02:47;1.33;;;0.90;;
30335;SDS011;17142;47.990;7.846;2022-11-15T03:05:19;0.97;;;0.87;;
30335;SDS011;17142;47.990;7.846;2022-11-15T03:11:03;1.67;;;1.00;;
30335;SDS011;17142;47.990;7.846;2022-11-15T03:22:03;1.97;;;1.80;;
30335;SDS011;17142;47.990;7.846;2022-11-15T03:24:34;2.30;;;1.13;;
30335;SDS011;17142;47.990;7.846;2022-11-15T03:27:03;2.87;;;1.03;;
30335;SDS011;17142;47.990;7.846;2022-11-15T03:29:36;1.33;;;1.10;;
30335;SDS011;17142;47.990;7.846;2022-11-15T03:32:11;2.23;;;1.10;;
30335;SDS011;17142;47.990;7.846;2022-11-15T03:34:44;1.27;;;1.17;;
30335;SDS011;17142;47.990;7.846;2022-11-15T03:37:15;1.37;;;1.27;;
30335;SDS011;17142;47.990;7.846;2022-11-15T03:39:45;2.87;;;1.60;;
30335;SDS011;17142;47.990;7.846;2022-11-15T03:42:25;1.53;;;1.13;;
30335;SDS011;17142;47.990;7.846;2022-11-15T03:45:14;1.20;;;1.13;;
30335;SDS011;17142;47.990;7.846;2022-11-15T03:48:01;2.57;;;1.43;;
30335;SDS011;17142;47.990;7.846;2022-11-15T03:50:37;2.20;;;1.30;;
30335;SDS011;17142;47.990;7.846;2022-11-15T03:53:06;2.23;;;1.20;;
30335;SDS011;17142;47.990;7.846;2022-11-15T03:55:32;3.10;;;1.40;;
30335;SDS011;17142;47.990;7.846;2022-11-15T03:57:59;2.20;;;1.00;;
30335;SDS011;17142;47.990;7.846;2022-11-15T04:00:26;1.23;;;0.87;;
30335;SDS011;17142;47.990;7.846;2022-11-15T04:02:52;1.97;;;1.23;;
30335;SDS011;17142;47.990;7.846;2022-11-15T04:05:18;1.70;;;1.13;;
30335;SDS011;17142;47.990;7.846;2022-11-15T04:07:48;2.07;;;1.13;;
30335;SDS011;17142;47.990;7.846;2022-11-15T04:10:16;2.10;;;1.67;;
30335;SDS011;17142;47.990;7.846;2022-11-15T04:12:44;4.10;;;1.90;;
30335;SDS011;17142;47.990;7.846;2022-11-15T04:15:16;2.37;;;2.10;;
30335;SDS011;17142;47.990;7.846;2022-11-15T04:23:00;2.00;;;1.20;;
30335;SDS011;17142;47.990;7.846;2022-11-15T04:25:45;2.23;;;1.83;;
30335;SDS011;17142;47.990;7.846;2022-11-15T04:28:16;4.90;;;2.10;;
30335;SDS011;17142;47.990;7.846;2022-11-15T04:30:44;2.03;;;1.40;;
30335;SDS011;17142;47.990;7.846;2022-11-15T04:33:10;2.03;;;1.83;;
30335;SDS011;17142;47.990;7.846;2022-11-15T04:35:38;2.27;;;2.07;;
30335;SDS011;17142;47.990;7.846;2022-11-15T04:38:05;2.77;;;2.17;;
30335;SDS011;17142;47.990;7.846;2022-11-15T04:40:32;3.50;;;2.80;;
30335;SDS011;17142;47.990;7.846;2022-11-15T04:42:58;3.50;;;2.40;;
30335;SDS011;17142;47.990;7.846;2022-11-15T04:45:28;5.50;;;2.63;;
30335;SDS011;17142;47.990;7.846;2022-11-15T04:47:54;3.90;;;2.43;;
30335;SDS011;17142;47.990;7.846;2022-11-15T04:50:19;3.40;;;2.50;;
30335;SDS011;17142;47.990;7.846;2022-11-15T04:52:52;2.57;;;2.37;;
30335;SDS011;17142;47.990;7.846;2022-11-15T04:55:19;2.67;;;2.47;;
30335;SDS011;17142;47.990;7.846;2022-11-15T04:57:45;2.90;;;2.33;;
30335;SDS011;17142;47.990;7.846;2022-11-15T05:00:11;2.70;;;2.20;;
30335;SDS011;17142;47.990;7.846;2022-11-15T05:02:41;1.97;;;1.77;;
30335;SDS011;17142;47.990;7.846;2022-11-15T05:05:29;3.53;;;2.70;;
30335;SDS011;17142;47.990;7.846;2022-11-15T05:07:55;3.00;;;2.60;;
30335;SDS011;17142;47.990;7.846;2022-11-15T05:10:21;2.93;;;2.30;;
30335;SDS011;17142;47.990;7.846;2022-11-15T05:12:49;3.40;;;2.10;;
30335;SDS011;17142;47.990;7.846;2022-11-15T05:15:14;3.07;;;2.50;;
30335;SDS011;17142;47.990;7.846;2022-11-15T05:17:40;4.60;;;2.20;;
30335;SDS011;17142;47.990;7.846;2022-11-15T05:20:08;1.80;;;1.67;;
30335;SDS011;17142;47.990;7.846;2022-11-15T05:22:37;2.87;;;2.03;;
30335;SDS011;17142;47.990;7.846;2022-11-15T05:25:06;2.27;;;2.03;;
30335;SDS011;17142;47.990;7.846;2022-11-15T05:27:32;2.40;;;2.10;;
30335;SDS011;17142;47.990;7.846;2022-11-15T05:29:58;2.47;;;2.27;;
30335;SDS011;17142;47.990;7.846;2022-11-15T05:32:27;2.53;;;1.80;;
30335;SDS011;17142;47.990;7.846;2022-11-15T05:34:54;2.07;;;1.87;;
30335;SDS011;17142;47.990;7.846;2022-11-15T05:37:19;3.70;;;2.00;;
30335;SDS011;17142;47.990;7.846;2022-11-15T05:39:45;3.80;;;3.00;;
30335;SDS011;17142;47.990;7.846;2022-11-15T05:42:11;6.23;;;4.43;;
30335;SDS011;17142;47.990;7.846;2022-11-15T05:44:39;4.33;;;2.83;;
30335;SDS011;17142;47.990;7.846;2022-11-15T05:47:08;5.83;;;2.90;;
30335;SDS011;17142;47.990;7.846;2022-11-15T05:49:37;2.47;;;1.93;;
30335;SDS011;17142;47.990;7.846;2022-11-15T05:52:07;3.07;;;2.63;;
30335;SDS011;17142;47.990;7.846;2022-11-15T05:54:39;2.87;;;2.40;;
30335;SDS011;17142;47.990;7.846;2022-11-15T05:57:05;3.23;;;2.43;;
30335;SDS011;17142;47.990;7.846;2022-11-15T05:59:31;2.53;;;2.33;;
30335;SDS011;17142;47.990;7.846;2022-11-15T06:02:00;3.50;;;2.60;;
30335;SDS011;17142;47.990;7.846;2022-11-15T06:04:26;2.40;;;2.20;;
30335;SDS011;17142;47.990;7.846;2022-11-15T06:06:54;3.53;;;2.40;;
30335;SDS011;17142;47.990;7.846;2022-11-15T06:09:20;4.50;;;3.00;;
30335;SDS011;17142;47.990;7.846;2022-11-15T06:11:48;3.50;;;3.07;;
30335;SDS011;17142;47.990;7.846;2022-11-15T06:14:14;4.47;;;3.17;;
30335;SDS011;17142;47.990;7.846;2022-11-15T06:16:42;4.10;;;3.63;;
30335;SDS011;17142;47.990;7.846;2022-11-15T06:19:08;5.03;;;3.67;;
30335;SDS011;17142;47.990;7.846;2022-11-15T06:21:36;3.20;;;2.90;;
30335;SDS011;17142;47.990;7.846;2022-11-15T06:24:02;3.70;;;2.93;;
30335;SDS011;17142;47.990;7.846;2022-11-15T06:26:27;3.80;;;3.10;;
30335;SDS011;17142;47.990;7.846;2022-11-15T06:28:53;4.00;;;3.00;;
30335;SDS011;17142;47.990;7.846;2022-11-15T06:31:19;3.30;;;2.70;;
30335;SDS011;17142;47.990;7.846;2022-11-15T06:33:44;4.63;;;3.30;;
30335;SDS011;17142;47.990;7.846;2022-11-15T06:36:11;3.47;;;3.10;;
30335;SDS011;17142;47.990;7.846;2022-11-15T06:38:41;5.37;;;2.77;;
30335;SDS011;17142;47.990;7.846;2022-11-15T06:41:08;3.80;;;3.23;;
30335;SDS011;17142;47.990;7.846;2022-11-15T06:43:35;3.37;;;3.07;;
30335;SDS011;17142;47.990;7.846;2022-11-15T06:46:04;3.30;;;3.00;;
30335;SDS011;17142;47.990;7.846;2022-11-15T06:48:30;4.17;;;2.83;;
30335;SDS011;17142;47.990;7.846;2022-11-15T06:50:57;3.60;;;2.93;;
30335;SDS011;17142;47.990;7.846;2022-11-15T06:53:24;3.90;;;3.20;;
30335;SDS011;17142;47.990;7.846;2022-11-15T06:55:53;3.30;;;2.83;;
30335;SDS011;17142;47.990;7.846;2022-11-15T06:58:25;9.33;;;3.10;;
30335;SDS011;17142;47.990;7.846;2022-11-15T07:00:51;4.73;;;3.87;;
30335;SDS011;17142;47.990;7.846;2022-11-15T07:03:16;5.57;;;3.67;;
30335;SDS011;17142;47.990;7.846;2022-11-15T07:05:42;5.37;;;2.90;;
30335;SDS011;17142;47.990;7.846;2022-11-15T07:08:14;4.70;;;3.50;;
30335;SDS011;17142;47.990;7.846;2022-11-15T07:10:40;5.10;;;3.93;;
30335;SDS011;17142;47.990;7.846;2022-11-15T07:13:06;3.43;;;2.70;;
30335;SDS011;17142;47.990;7.846;2022-11-15T07:15:31;6.00;;;3.20;;
30335;SDS011;17142;47.990;7.846;2022-11-15T07:18:00;3.07;;;2.80;;
30335;SDS011;17142;47.990;7.846;2022-11-15T07:20:26;5.57;;;4.50;;
30335;SDS011;17142;47.990;7.846;2022-11-15T07:22:54;4.90;;;3.47;;
30335;SDS011;17142;47.990;7.846;2022-11-15T07:25:27;3.50;;;3.20;;
30335;SDS011;17142;47.990;7.846;2022-11-15T07:28:02;6.57;;;2.90;;
30335;SDS011;17142;47.990;7.846;2022-11-15T07:30:30;3.67;;;3.00;;
30335;SDS011;17142;47.990;7.846;2022-11-15T07:32:59;4.40;;;2.87;;
30335;SDS011;17142;47.990;7.846;2022-11-15T07:35:28;5.00;;;3.23;;
30335;SDS011;17142;47.990;7.846;2022-11-15T07:40:24;4.30;;;2.50;;
30335;SDS011;17142;47.990;7.846;2022-11-15T07:42:50;3.83;;;3.03;;
30335;SDS011;17142;47.990;7.846;2022-11-15T07:45:19;2.80;;;2.30;;
30335;SDS011;17142;47.990;7.846;2022-11-15T07:47:46;6.30;;;2.40;;
30335;SDS011;17142;47.990;7.846;2022-11-15T07:50:14;4.27;;;2.60;;
30335;SDS011;17142;47.990;7.846;2022-11-15T07:52:43;5.03;;;4.53;;
30335;SDS011;17142;47.990;7.846;2022-11-15T07:55:09;4.57;;;3.80;;
30335;SDS011;17142;47.990;7.846;2022-11-15T07:57:35;4.10;;;3.70;;
30335;SDS011;17142;47.990;7.846;2022-11-15T08:00:01;4.03;;;3.27;;
30335;SDS011;17142;47.990;7.846;2022-11-15T08:02:28;2.77;;;2.50;;
30335;SDS011;17142;47.990;7.846;2022-11-15T08:04:54;4.13;;;3.13;;
30335;SDS011;17142;47.990;7.846;2022-11-15T08:07:22;3.57;;;2.50;;
30335;SDS011;17142;47.990;7.846;2022-11-15T08:09:49;3.90;;;3.10;;
30335;SDS011;17142;47.990;7.846;2022-11-15T08:12:15;3.10;;;2.83;;
30335;SDS011;17142;47.990;7.846;2022-11-15T08:14:40;3.10;;;2.80;;
30335;SDS011;17142;47.990;7.846;2022-11-15T08:17:09;4.13;;;3.23;;
30335;SDS011;17142;47.990;7.846;2022-11-15T08:19:36;4.30;;;3.30;;
30335;SDS011;17142;47.990;7.846;2022-11-15T08:22:04;4.77;;;3.97;;
30335;SDS011;17142;47.990;7.846;2022-11-15T08:24:30;8.50;;;4.00;;
30335;SDS011;17142;47.990;7.846;2022-11-15T08:26:56;7.53;;;4.87;;
30335;SDS011;17142;47.990;7.846;2022-11-15T08:29:21;6.73;;;4.53;;
30335;SDS011;17142;47.990;7.846;2022-11-15T08:31:47;6.63;;;4.83;;
30335;SDS011;17142;47.990;7.846;2022-11-15T08:34:12;7.60;;;4.07;;
30335;SDS011;17142;47.990;7.846;2022-11-15T08:36:38;4.67;;;3.50;;
30335;SDS011;17142;47.990;7.846;2022-11-15T08:39:04;4.93;;;4.23;;
30335;SDS011;17142;47.990;7.846;2022-11-15T08:41:30;5.10;;;3.90;;
30335;SDS011;17142;47.990;7.846;2022-11-15T08:44:00;4.93;;;3.90;;
30335;SDS011;17142;47.990;7.846;2022-11-15T08:46:26;5.47;;;4.63;;
30335;SDS011;17142;47.990;7.846;2022-11-15T08:48:52;4.07;;;3.13;;
30335;SDS011;17142;47.990;7.846;2022-11-15T08:51:17;5.33;;;3.43;;
30335;SDS011;17142;47.990;7.846;2022-11-15T08:53:43;5.37;;;4.10;;
30335;SDS011;17142;47.990;7.846;2022-11-15T08:56:10;5.83;;;3.90;;
30335;SDS011;17142;47.990;7.846;2022-11-15T08:58:37;3.93;;;3.23;;
30335;SDS011;17142;47.990;7.846;2022-11-15T09:01:03;2.97;;;2.67;;
30335;SDS011;17142;47.990;7.846;2022-11-15T09:03:30;3.33;;;3.00;;
30335;SDS011;17142;47.990;7.846;2022-11-15T09:05:56;4.27;;;3.53;;
30335;SDS011;17142;47.990;7.846;2022-11-15T09:08:23;2.87;;;2.57;;
30335;SDS011;17142;47.990;7.846;2022-11-15T09:10:49;3.27;;;2.33;;
30335;SDS011;17142;47.990;7.846;2022-11-15T09:13:17;3.37;;;2.90;;
30335;SDS011;17142;47.990;7.846;2022-11-15T09:15:47;4.17;;;3.03;;
30335;SDS011;17142;47.990;7.846;2022-11-15T09:18:15;4.07;;;2.50;;
30335;SDS011;17142;47.990;7.846;2022-11-15T09:20:44;3.33;;;3.03;;
30335;SDS011;17142;47.990;7.846;2022-11-15T09:23:14;3.50;;;2.70;;
30335;SDS011;17142;47.990;7.846;2022-11-15T09:25:39;6.03;;;3.50;;
30335;SDS011;17142;47.990;7.846;2022-11-15T09:28:06;5.77;;;3.20;;
30335;SDS011;17142;47.990;7.846;2022-11-15T09:30:34;5.07;;;3.70;;
30335;SDS011;17142;47.990;7.846;2022-11-15T09:33:06;4.63;;;4.20;;
30335;SDS011;17142;47.990;7.846;2022-11-15T09:35:37;5.53;;;4.23;;
30335;SDS011;17142;47.990;7.846;2022-11-15T09:38:05;5.23;;;3.87;;
30335;SDS011;17142;47.990;7.846;2022-11-15T09:40:31;4.07;;;3.67;;
30335;SDS011;17142;47.990;7.846;2022-11-15T09:46:14;4.57;;;3.33;;
30335;SDS011;17142;47.990;7.846;2022-11-15T09:49:02;6.40;;;3.70;;
30335;SDS011;17142;47.990;7.846;2022-11-15T09:51:34;5.57;;;3.20;;
30335;SDS011;17142;47.990;7.846;2022-11-15T09:56:55;5.80;;;3.83;;
30335;SDS011;17142;47.990;7.846;2022-11-15T10:05:20;5.40;;;4.00;;
30335;SDS011;17142;47.990;7.846;2022-11-15T10:11:02;3.53;;;3.23;;
30335;SDS011;17142;47.990;7.846;2022-11-15T10:13:32;6.30;;;3.00;;
30335;SDS011;17142;47.990;7.846;2022-11-15T10:16:09;3.30;;;2.90;;
30335;SDS011;17142;47.990;7.846;2022-11-15T10:19:04;4.80;;;3.53;;
30335;SDS011;17142;47.990;7.846;2022-11-15T10:21:40;3.80;;;2.57;;
30335;SDS011;17142;47.990;7.846;2022-11-15T10:24:11;2.10;;;1.90;;
30335;SDS011;17142;47.990;7.846;2022-11-15T10:26:46;3.57;;;2.97;;
30335;SDS011;17142;47.990;7.846;2022-11-15T10:29:18;2.33;;;2.13;;
30335;SDS011;17142;47.990;7.846;2022-11-15T10:31:45;2.97;;;2.60;;
30335;SDS011;17142;47.990;7.846;2022-11-15T10:36:44;6.80;;;2.93;;
30335;SDS011;17142;47.990;7.846;2022-11-15T10:39:12;3.03;;;2.40;;
30335;SDS011;17142;47.990;7.846;2022-11-15T10:41:39;4.30;;;2.83;;
30335;SDS011;17142;47.990;7.846;2022-11-15T10:46:33;3.83;;;1.90;;
30335;SDS011;17142;47.990;7.846;2022-11-15T10:49:12;3.60;;;3.00;;
30335;SDS011;17142;47.990;7.846;2022-11-15T10:51:47;4.60;;;3.27;;
30335;SDS011;17142;47.990;7.846;2022-11-15T10:57:05;4.20;;;2.13;;
30335;SDS011;17142;47.990;7.846;2022-11-15T10:59:51;2.93;;;2.40;;
30335;SDS011;17142;47.990;7.846;2022-11-15T11:05:24;2.73;;;2.20;;
30335;SDS011;17142;47.990;7.846;2022-11-15T11:07:55;2.70;;;2.27;;
30335;SDS011;17142;47.990;7.846;2022-11-15T11:10:26;3.00;;;2.43;;
30335;SDS011;17142;47.990;7.846;2022-11-15T11:12:52;3.10;;;2.30;;
30335;SDS011;17142;47.990;7.846;2022-11-15T11:15:18;3.87;;;1.73;;
30335;SDS011;17142;47.990;7.846;2022-11-15T11:20:31;4.60;;;3.30;;
30335;SDS011;17142;47.990;7.846;2022-11-15T11:23:12;3.70;;;2.50;;
30335;SDS011;17142;47.990;7.846;2022-11-15T11:36:54;3.77;;;2.97;;
30335;SDS011;17142;47.990;7.846;2022-11-15T11:42:16;2.03;;;1.73;;
30335;SDS011;17142;47.990;7.846;2022-11-15T11:45:03;2.40;;;1.50;;
30335;SDS011;17142;47.990;7.846;2022-11-15T11:47:38;1.70;;;1.60;;
30335;SDS011;17142;47.990;7.846;2022-11-15T11:50:17;2.47;;;1.30;;
30335;SDS011;17142;47.990;7.846;2022-11-15T11:52:57;1.37;;;1.20;;
30335;SDS011;17142;47.990;7.846;2022-11-15T11:55:24;5.30;;;1.63;;
30335;SDS011;17142;47.990;7.846;2022-11-15T11:58:02;1.70;;;1.10;;
30335;SDS011;17142;47.990;7.846;2022-11-15T12:00:39;3.53;;;1.90;;
30335;SDS011;17142;47.990;7.846;2022-11-15T12:06:36;1.40;;;1.00;;
30335;SDS011;17142;47.990;7.846;2022-11-15T12:09:22;2.20;;;1.60;;
30335;SDS011;17142;47.990;7.846;2022-11-15T12:15:03;3.53;;;1.30;;
30335;SDS011;17142;47.990;7.846;2022-11-15T12:17:37;1.77;;;1.47;;
30335;SDS011;17142;47.990;7.846;2022-11-15T12:20:12;3.73;;;1.50;;
30335;SDS011;17142;47.990;7.846;2022-11-15T12:22:43;1.37;;;1.10;;
30335;SDS011;17142;47.990;7.846;2022-11-15T12:31:00;0.87;;;0.80;;
30335;SDS011;17142;47.990;7.846;2022-11-15T12:33:37;1.70;;;1.10;;
30335;SDS011;17142;47.990;7.846;2022-11-15T12:41:18;1.40;;;1.03;;
30335;SDS011;17142;47.990;7.846;2022-11-15T12:43:45;1.90;;;1.33;;
30335;SDS011;17142;47.990;7.846;2022-11-15T12:48:53;3.57;;;1.63;;
30335;SDS011;17142;47.990;7.846;2022-11-15T12:51:20;4.87;;;1.80;;
30335;SDS011;17142;47.990;7.846;2022-11-15T12:53:48;7.57;;;3.00;;
30335;SDS011;17142;47.990;7.846;2022-11-15T13:01:08;5.60;;;3.97;;
30335;SDS011;17142;47.990;7.846;2022-11-15T13:03:34;5.23;;;3.93;;
30335;SDS011;17142;47.990;7.846;2022-11-15T13:06:03;5.53;;;3.60;;
30335;SDS011;17142;47.990;7.846;2022-11-15T13:08:40;6.43;;;3.37;;
30335;SDS011;17142;47.990;7.846;2022-11-15T13:19:48;3.10;;;2.63;;
30335;SDS011;17142;47.990;7.846;2022-11-15T13:22:20;2.37;;;1.90;;
30335;SDS011;17142;47.990;7.846;2022-11-15T13:25:12;5.43;;;2.10;;
30335;SDS011;17142;47.990;7.846;2022-11-15T13:27:58;1.97;;;1.73;;
30335;SDS011;17142;47.990;7.846;2022-11-15T13:30:27;3.50;;;2.13;;
30335;SDS011;17142;47.990;7.846;2022-11-15T13:32:55;4.33;;;2.13;;
30335;SDS011;17142;47.990;7.846;2022-11-15T13:35:27;2.70;;;2.20;;
30335;SDS011;17142;47.990;7.846;2022-11-15T13:37:56;3.60;;;2.10;;
30335;SDS011;17142;47.990;7.846;2022-11-15T13:40:29;2.67;;;1.90;;
30335;SDS011;17142;47.990;7.846;2022-11-15T13:42:59;3.60;;;1.67;;
30335;SDS011;17142;47.990;7.846;2022-11-15T13:45:40;1.97;;;1.50;;
30335;SDS011;17142;47.990;7.846;2022-11-15T13:48:08;3.20;;;1.57;;
30335;SDS011;17142;47.990;7.846;2022-11-15T13:50:35;1.67;;;1.30;;
30335;SDS011;17142;47.990;7.846;2022-11-15T13:53:06;2.03;;;1.83;;
30335;SDS011;17142;47.990;7.846;2022-11-15T13:55:31;2.43;;;1.20;;
30335;SDS011;17142;47.990;7.846;2022-11-15T13:57:58;3.40;;;1.27;;
30335;SDS011;17142;47.990;7.846;2022-11-15T14:05:46;2.70;;;2.03;;
30335;SDS011;17142;47.990;7.846;2022-11-15T14:08:36;2.00;;;1.70;;
30335;SDS011;17142;47.990;7.846;2022-11-15T14:11:17;2.30;;;2.10;;
30335;SDS011;17142;47.990;7.846;2022-11-15T14:16:35;2.33;;;1.60;;
30335;SDS011;17142;47.990;7.846;2022-11-15T14:19:12;2.00;;;1.67;;
30335;SDS011;17142;47.990;7.846;2022-11-15T14:24:36;3.03;;;1.80;;
30335;SDS011;17142;47.990;7.846;2022-11-15T14:27:18;2.10;;;1.60;;
30335;SDS011;17142;47.990;7.846;2022-11-15T14:29:47;2.97;;;1.63;;
30335;SDS011;17142;47.990;7.846;2022-11-15T14:34:42;2.03;;;1.80;;
30335;SDS011;17142;47.990;7.846;2022-11-15T14:37:30;2.53;;;1.67;;
30335;SDS011;17142;47.990;7.846;2022-11-15T14:39:59;2.33;;;1.40;;
30335;SDS011;17142;47.990;7.846;2022-11-15T14:42:26;3.10;;;1.90;;
30335;SDS011;17142;47.990;7.846;2022-11-15T14:44:52;1.57;;;1.23;;
30335;SDS011;17142;47.990;7.846;2022-11-15T14:47:20;1.63;;;1.53;;
30335;SDS011;17142;47.990;7.846;2022-11-15T14:49:46;3.00;;;1.30;;
30335;SDS011;17142;47.990;7.846;2022-11-15T14:54:49;2.80;;;1.80;;
30335;SDS011;17142;47.990;7.846;2022-11-15T14:57:15;2.80;;;1.70;;
30335;SDS011;17142;47.990;7.846;2022-11-15T14:59:41;4.70;;;1.70;;
30335;SDS011;17142;47.990;7.846;2022-11-15T15:02:24;1.70;;;1.40;;
30335;SDS011;17142;47.990;7.846;2022-11-15T15:04:53;1.63;;;1.43;;
30335;SDS011;17142;47.990;7.846;2022-11-15T15:07:26;1.83;;;1.43;;
30335;SDS011;17142;47.990;7.846;2022-11-15T15:09:52;1.60;;;1.47;;
30335;SDS011;17142;47.990;7.846;2022-11-15T15:12:20;2.63;;;2.07;;
30335;SDS011;17142;47.990;7.846;2022-11-15T15:14:48;2.30;;;1.67;;
30335;SDS011;17142;47.990;7.846;2022-11-15T15:17:15;3.73;;;2.40;;
30335;SDS011;17142;47.990;7.846;2022-11-15T15:19:41;3.50;;;2.33;;
30335;SDS011;17142;47.990;7.846;2022-11-15T15:22:17;3.00;;;1.93;;
30335;SDS011;17142;47.990;7.846;2022-11-15T15:24:44;4.33;;;1.93;;
30335;SDS011;17142;47.990;7.846;2022-11-15T15:27:12;2.73;;;1.47;;
30335;SDS011;17142;47.990;7.846;2022-11-15T15:29:38;2.40;;;2.20;;
30335;SDS011;17142;47.990;7.846;2022-11-15T15:32:04;1.83;;;1.60;;
30335;SDS011;17142;47.990;7.846;2022-11-15T15:34:32;2.47;;;1.90;;
30335;SDS011;17142;47.990;7.846;2022-11-15T15:39:46;5.30;;;3.57;;
30335;SDS011;17142;47.990;7.846;2022-11-15T15:42:11;5.10;;;4.00;;
30335;SDS011;17142;47.990;7.846;2022-11-15T15:44:37;6.13;;;5.37;;
30335;SDS011;17142;47.990;7.846;2022-11-15T15:47:07;7.20;;;6.00;;
30335;SDS011;17142;47.990;7.846;2022-11-15T15:49:41;6.30;;;4.47;;
30335;SDS011;17142;47.990;7.846;2022-11-15T15:52:10;10.47;;;7.23;;
30335;SDS011;17142;47.990;7.846;2022-11-15T15:54:38;10.40;;;6.47;;
30335;SDS011;17142;47.990;7.846;2022-11-15T15:57:04;9.73;;;6.40;;
30335;SDS011;17142;47.990;7.846;2022-11-15T15:59:32;6.80;;;5.80;;
30335;SDS011;17142;47.990;7.846;2022-11-15T16:01:58;7.87;;;6.70;;
30335;SDS011;17142;47.990;7.846;2022-11-15T16:04:26;9.67;;;6.17;;
30335;SDS011;17142;47.990;7.846;2022-11-15T16:06:57;7.43;;;6.37;;
30335;SDS011;17142;47.990;7.846;2022-11-15T16:09:23;7.30;;;5.57;;
30335;SDS011;17142;47.990;7.846;2022-11-15T16:12:10;8.40;;;6.10;;
30335;SDS011;17142;47.990;7.846;2022-11-15T16:14:36;6.67;;;5.60;;
30335;SDS011;17142;47.990;7.846;2022-11-15T16:17:02;7.60;;;5.93;;
30335;SDS011;17142;47.990;7.846;2022-11-15T16:19:30;6.60;;;5.50;;
30335;SDS011;17142;47.990;7.846;2022-11-15T16:21:58;5.93;;;4.90;;
30335;SDS011;17142;47.990;7.846;2022-11-15T16:24:26;9.10;;;5.60;;
30335;SDS011;17142;47.990;7.846;2022-11-15T16:26:52;7.80;;;5.80;;
30335;SDS011;17142;47.990;7.846;2022-11-15T16:29:17;7.10;;;5.50;;
30335;SDS011;17142;47.990;7.846;2022-11-15T16:31:43;7.53;;;5.43;;
30335;SDS011;17142;47.990;7.846;2022-11-15T16:34:11;6.77;;;5.20;;
30335;SDS011;17142;47.990;7.846;2022-11-15T16:36:36;7.30;;;5.60;;
30335;SDS011;17142;47.990;7.846;2022-11-15T16:39:02;9.33;;;7.00;;
30335;SDS011;17142;47.990;7.846;2022-11-15T16:41:33;9.30;;;5.80;;
30335;SDS011;17142;47.990;7.846;2022-11-15T16:43:58;7.07;;;6.20;;
30335;SDS011;17142;47.990;7.846;2022-11-15T16:46:27;8.00;;;6.13;;
30335;SDS011;17142;47.990;7.846;2022-11-15T16:48:54;7.93;;;6.80;;
30335;SDS011;17142;47.990;7.846;2022-11-15T16:51:20;9.80;;;7.30;;
30335;SDS011;17142;47.990;7.846;2022-11-15T16:53:46;8.97;;;7.37;;
30335;SDS011;17142;47.990;7.846;2022-11-15T16:56:26;11.63;;;7.83;;
30335;SDS011;17142;47.990;7.846;2022-11-15T16:58:53;9.23;;;7.17;;
30335;SDS011;17142;47.990;7.846;2022-11-15T17:01:23;12.17;;;7.53;;
30335;SDS011;17142;47.990;7.846;2022-11-15T17:03:50;14.47;;;8.70;;
30335;SDS011;17142;47.990;7.846;2022-11-15T17:06:16;10.47;;;7.97;;
30335;SDS011;17142;47.990;7.846;2022-11-15T17:08:43;12.60;;;8.80;;
30335;SDS011;17142;47.990;7.846;2022-11-15T17:11:10;9.70;;;7.30;;
30335;SDS011;17142;47.990;7.846;2022-11-15T17:13:47;9.43;;;7.20;;
30335;SDS011;17142;47.990;7.846;2022-11-15T17:16:16;14.90;;;6.87;;
30335;SDS011;17142;47.990;7.846;2022-11-15T17:18:42;7.70;;;6.90;;
30335;SDS011;17142;47.990;7.846;2022-11-15T17:21:15;13.20;;;8.67;;